Airfield :
LOGIN :

Register | Disclaimer

   EN    FR    IT 

 










Legend :    VFR   Marginal VFR   IFR   Intensive IFR   Very Intensive IFR
Visi :
Ceiling :
>= 8 km
>= 3000ft
5 to 8 km
1000 to 3000 ft
1500m to 5 km
500 to 1000 ft
800 to 1500m
200 to 500 ft
< 800m
< 200 ft
Symbols :   Thunderstorms  Fog  Heavy snow  Heavy precipitations  Wind > 20 kt
SIGMETs :     Misc.  Thunderstorms  Icing  Turbulence  Mountain Waves  Volcanic Ashes






- Airport Elevation : 1017 ft


LFSL - Brive Souillac

CURRENT METAR :
  • 121330Z AUTO 26004KT 200V300 9999 BKN016 BKN022 BKN037 10/07 Q1009 TEMPO 4000 SHRA BKN004 SCT020TCU

EXPIRED METARs :
  • 121300Z AUTO VRB03KT 9999 SCT011 SCT016 BKN021 10/08 Q1009 TEMPO 4000 SHRA BKN004 SCT020TCU
  • 121230Z AUTO 30004KT 250V330 9999 BKN010 BKN017 OVC038 09/07 Q1010 TEMPO 4000 SHRA BKN004 SCT020TCU
  • 121200Z AUTO 27004KT 220V320 9999 BKN010 OVC017 09/07 Q1010 TEMPO 4000 SHRA BKN004 SCT020TCU
  • 121130Z AUTO 28003KT 210V330 9999 BKN008 BKN012 OVC032 08/07 Q1010 TEMPO 4000 SHRA BKN004 SCT020TCU
  • 121100Z AUTO 26004KT 210V310 9999 OVC005 07/07 Q1011 TEMPO 4000 SHRA BKN004 SCT020TCU

TAF TAF LFSL
Valid from the 12 at 12:00 until the 12 at 21:00 UTC


121100Z 1212/1221 27003KT 9999 BKN008
PROB40
TEMPO 1212/1216 4000 SHRA BKN004 SCT020TCU



MET'MAP, your aeronautical weather chart ! - Copyright ORBIFLY December 2007 - Disclaimer

ORBIFLY MET'MAP TEAM :

Programming & Development : Alexandra Zaïnal
Concept & Development : Baudouin d'Aumeries
Co-Development & Prog : Marc-Olivier Méhu
Technical & hardware support : Manuel Goepfert

Contact : metmap@orbifly.com




SOURCES & CREDITS :

   NOAA